createdAt,value
2023-03-17T00:00:22.792Z,96575.78
2023-03-17T00:05:33.692Z,96568.16
2023-03-17T00:15:43.198Z,96571.34
2023-03-17T00:20:34.958Z,96574.84
2023-03-17T00:25:30.416Z,96572.25
2023-03-17T00:30:24.349Z,96566.44
2023-03-17T00:35:18.815Z,96562.16
2023-03-17T00:40:31.403Z,96560.00
2023-03-17T00:45:26.963Z,96549.19
2023-03-17T00:50:23.088Z,96545.91
2023-03-17T00:55:15.769Z,96555.66
2023-03-17T01:00:20.718Z,96556.81
2023-03-17T01:05:13.949Z,96555.66
2023-03-17T01:10:15.748Z,96540.84
2023-03-17T01:15:08.045Z,96534.19
2023-03-17T01:19:59.710Z,96536.03
2023-03-17T01:24:51.558Z,96510.53
2023-03-17T01:29:43.223Z,96495.47
2023-03-17T01:34:35.071Z,96495.81
2023-03-17T01:39:27.364Z,96490.13
2023-03-17T01:44:19.466Z,96496.56
2023-03-17T01:49:29.861Z,96501.72
2023-03-17T01:54:35.693Z,96513.72
2023-03-17T01:59:34.673Z,96503.88
2023-03-17T02:04:26.886Z,96494.34
2023-03-17T02:09:19.536Z,96498.03
2023-03-17T02:14:11.243Z,96490.50
2023-03-17T02:19:03.449Z,96487.72
2023-03-17T02:23:56.657Z,96476.34
2023-03-17T02:28:48.492Z,96474.09
2023-03-17T02:33:40.262Z,96487.19
2023-03-17T02:38:32.059Z,96494.63
2023-03-17T02:43:23.783Z,96494.91
2023-03-17T02:48:15.727Z,96491.34
2023-03-17T02:53:08.088Z,96488.25
2023-03-17T02:58:01.901Z,96491.59
2023-03-17T03:02:54.711Z,96497.41
2023-03-17T03:07:46.833Z,96493.53
2023-03-17T03:12:38.553Z,96491.28
2023-03-17T03:17:30.509Z,96491.03
2023-03-17T03:22:22.254Z,96488.25
2023-03-17T03:27:13.918Z,96496.84
2023-03-17T03:32:06.493Z,96492.63
2023-03-17T03:36:58.222Z,96504.47
2023-03-17T03:41:49.932Z,96510.28
2023-03-17T03:46:41.695Z,96507.06
2023-03-17T03:51:33.565Z,96507.50
2023-03-17T03:56:25.358Z,96509.09
2023-03-17T04:01:17.976Z,96504.91
2023-03-17T04:06:09.749Z,96512.22
2023-03-17T04:11:01.428Z,96511.06
2023-03-17T04:15:53.198Z,96513.94
2023-03-17T04:20:45.195Z,96502.97
2023-03-17T04:25:36.899Z,96504.84
2023-03-17T04:30:29.111Z,96492.97
2023-03-17T04:35:24.755Z,96500.94
2023-03-17T04:40:18.897Z,96494.41
2023-03-17T04:45:15.355Z,96491.84
2023-03-17T04:50:08.806Z,96478.91
2023-03-17T05:00:08.775Z,96490.84
2023-03-17T05:05:01.012Z,96503.44
2023-03-17T05:09:52.843Z,96495.84
2023-03-17T05:14:45.443Z,96495.31
2023-03-17T05:19:37.113Z,96497.09
2023-03-17T05:24:28.768Z,96502.28
2023-03-17T05:29:20.636Z,96499.41
2023-03-17T05:34:12.296Z,96494.06
2023-03-17T05:39:05.284Z,96501.38
2023-03-17T05:43:57.136Z,96507.81
2023-03-17T05:48:48.851Z,96511.91
2023-03-17T05:53:41.015Z,96510.75
2023-03-17T05:58:32.701Z,96508.53
2023-03-17T06:03:24.490Z,96518.78
2023-03-17T06:08:16.884Z,96513.22
2023-03-17T06:13:09.181Z,96503.31
2023-03-17T06:23:06.795Z,96501.66
2023-03-17T06:27:58.713Z,96511.91
2023-03-17T06:32:50.517Z,96516.47
2023-03-17T06:37:42.312Z,96519.88
2023-03-17T06:42:34.377Z,96505.16
2023-03-17T06:47:26.408Z,96510.50
2023-03-17T06:52:18.085Z,96502.22
2023-03-17T06:57:10.123Z,96503.06
2023-03-17T07:02:02.388Z,96502.91
2023-03-17T07:06:54.386Z,96509.25
2023-03-17T07:11:46.275Z,96510.59
2023-03-17T07:16:38.403Z,96528.13
2023-03-17T07:21:32.122Z,96536.28
2023-03-17T07:36:52.198Z,96535.84
2023-03-17T07:46:51.416Z,96514.81
2023-03-17T07:51:44.979Z,96508.50
2023-03-17T07:56:36.925Z,96502.81
2023-03-17T08:01:29.193Z,96495.44
2023-03-17T08:06:27.501Z,96513.94
2023-03-17T08:11:20.042Z,96514.50
2023-03-17T08:31:40.490Z,96496.38
2023-03-17T08:36:32.254Z,96492.28
2023-03-17T08:41:35.905Z,96493.16
2023-03-17T08:46:36.957Z,96488.69
2023-03-17T08:51:40.783Z,96484.09
2023-03-17T08:56:34.513Z,96484.50
2023-03-17T09:01:28.273Z,96474.81
2023-03-17T09:06:22.142Z,96473.63
2023-03-17T09:11:17.717Z,96483.19
2023-03-17T09:16:23.302Z,96478.06
2023-03-17T09:21:16.413Z,96466.34
2023-03-17T09:26:09.204Z,96465.16
2023-03-17T09:31:05.117Z,96464.66
2023-03-17T09:35:57.134Z,96458.38
2023-03-17T09:41:19.096Z,96470.59
2023-03-17T09:46:45.409Z,96457.81
2023-03-17T09:51:38.532Z,96464.06
2023-03-17T09:56:36.462Z,96468.69
2023-03-17T10:01:29.345Z,96463.69
2023-03-17T10:06:36.015Z,96466.13
2023-03-17T10:12:19.861Z,96454.59
2023-03-17T10:17:27.082Z,96443.44
2023-03-17T10:22:34.967Z,96436.03
2023-03-17T10:27:28.297Z,96431.03
2023-03-17T10:32:20.060Z,96432.81
2023-03-17T10:37:24.778Z,96420.84
2023-03-17T10:42:23.591Z,96426.56
2023-03-17T10:47:38.288Z,96406.13
2023-03-17T10:52:38.123Z,96406.94
2023-03-17T10:57:37.615Z,96401.84
2023-03-17T11:02:47.915Z,96406.19
2023-03-17T11:12:58.469Z,96397.44
2023-03-17T11:23:23.741Z,96386.34
2023-03-17T11:28:31.442Z,96384.25
2023-03-17T11:39:07.365Z,96351.09
2023-03-17T11:44:19.919Z,96350.19
2023-03-17T11:54:39.846Z,96352.19
2023-03-17T11:59:45.045Z,96352.25
2023-03-17T12:16:00.343Z,96324.03
2023-03-17T12:21:07.748Z,96322.72
2023-03-17T12:26:16.477Z,96313.72
2023-03-17T12:31:23.932Z,96321.41
2023-03-17T12:47:57.076Z,96309.50
2023-03-17T12:53:11.404Z,96306.31
2023-03-17T12:58:40.799Z,96297.34
2023-03-17T13:14:16.766Z,96282.78
2023-03-17T13:24:52.539Z,96275.41
2023-03-17T13:45:41.156Z,96240.78
2023-03-17T13:56:08.608Z,96250.22
2023-03-17T14:01:15.493Z,96253.59
2023-03-17T14:11:48.320Z,96256.59
2023-03-17T14:22:28.597Z,96252.47
2023-03-17T14:38:04.604Z,96245.00
2023-03-17T14:48:04.721Z,96244.16
2023-03-17T14:53:01.420Z,96245.94
2023-03-17T14:57:55.500Z,96244.59
2023-03-17T15:08:36.445Z,96244.03
2023-03-17T15:39:13.588Z,96217.88
2023-03-17T15:59:29.100Z,96205.72
2023-03-17T16:14:34.994Z,96185.97
2023-03-17T16:19:27.610Z,96192.66
2023-03-17T16:24:24.742Z,96189.53
2023-03-17T16:29:21.936Z,96187.41
2023-03-17T16:34:18.845Z,96189.44
2023-03-17T16:39:18.563Z,96180.38
2023-03-17T16:44:12.269Z,96169.72
2023-03-17T16:49:04.886Z,96174.28
2023-03-17T16:59:02.336Z,96190.81
2023-03-17T17:03:55.055Z,96189.59
2023-03-17T17:08:50.010Z,96193.19
2023-03-17T17:13:45.373Z,96202.06
2023-03-17T17:18:37.981Z,96207.81
2023-03-17T17:23:31.231Z,96218.00
2023-03-17T17:28:25.646Z,96219.28
2023-03-17T17:33:20.857Z,96222.91
2023-03-17T17:43:40.288Z,96226.44
2023-03-17T17:48:32.010Z,96235.00
2023-03-17T17:53:24.370Z,96238.66
2023-03-17T17:58:22.622Z,96244.53
2023-03-17T18:03:14.422Z,96242.00
2023-03-17T18:08:06.531Z,96249.94
2023-03-17T18:12:58.562Z,96251.88
2023-03-17T18:17:50.932Z,96256.41
2023-03-17T18:22:43.139Z,96267.06
2023-03-17T18:27:35.493Z,96265.09
2023-03-17T18:32:28.894Z,96256.81
2023-03-17T18:37:21.000Z,96276.53
2023-03-17T18:42:12.825Z,96271.41
2023-03-17T18:47:04.605Z,96284.53
2023-03-17T18:51:57.293Z,96278.31
2023-03-17T18:56:49.487Z,96285.56
2023-03-17T19:01:41.673Z,96279.66
2023-03-17T19:06:35.278Z,96295.84
2023-03-17T19:11:29.582Z,96292.47
2023-03-17T19:16:21.524Z,96293.41
2023-03-17T19:21:13.547Z,96279.88
2023-03-17T19:26:06.019Z,96282.84
2023-03-17T19:30:58.394Z,96293.00
2023-03-17T19:35:59.767Z,96292.91
2023-03-17T19:40:52.744Z,96298.84
2023-03-17T19:50:50.822Z,96308.78
2023-03-17T19:55:44.602Z,96308.09
2023-03-17T20:00:36.280Z,96310.59
2023-03-17T20:05:30.977Z,96318.56
2023-03-17T20:10:22.946Z,96320.19
2023-03-17T20:15:16.269Z,96314.25
2023-03-17T20:20:11.098Z,96315.53
2023-03-17T20:25:03.842Z,96316.97
2023-03-17T20:29:56.759Z,96326.78
2023-03-17T20:34:48.723Z,96328.81
2023-03-17T20:39:40.623Z,96330.41
2023-03-17T20:44:32.770Z,96328.59
2023-03-17T20:49:28.565Z,96341.97
2023-03-17T20:54:20.223Z,96337.66
2023-03-17T20:59:13.694Z,96343.53
2023-03-17T21:09:14.566Z,96340.88
2023-03-17T21:14:08.037Z,96342.81
2023-03-17T21:19:00.658Z,96338.25
2023-03-17T21:23:55.895Z,96347.91
2023-03-17T21:28:49.141Z,96350.97
2023-03-17T21:38:50.211Z,96353.53
2023-03-17T21:43:41.874Z,96366.03
2023-03-17T21:48:33.634Z,96364.41
2023-03-17T21:53:26.175Z,96362.75
2023-03-17T21:58:18.764Z,96371.53
2023-03-17T22:03:19.070Z,96376.16
2023-03-17T22:13:18.338Z,96377.53
2023-03-17T22:18:12.879Z,96383.34
2023-03-17T22:28:11.596Z,96391.56
2023-03-17T22:33:09.026Z,96383.19
2023-03-17T22:38:01.856Z,96395.72
2023-03-17T22:42:57.005Z,96397.00
2023-03-17T22:47:52.713Z,96400.78
2023-03-17T22:52:45.152Z,96406.16
2023-03-17T22:57:37.617Z,96405.78
2023-03-17T23:02:30.394Z,96411.13
2023-03-17T23:07:22.938Z,96413.88
2023-03-17T23:12:14.798Z,96427.81
2023-03-17T23:17:15.241Z,96436.69
2023-03-17T23:22:09.662Z,96431.47
2023-03-17T23:27:01.624Z,96428.09
2023-03-17T23:31:53.736Z,96437.53
2023-03-17T23:36:45.931Z,96441.50
2023-03-17T23:41:38.234Z,96446.28
2023-03-17T23:46:30.010Z,96449.97
2023-03-17T23:51:33.637Z,96452.22
2023-03-17T23:56:29.321Z,96452.22
